Date,TemperatureHighF,TemperatureAvgF,TemperatureLowF,DewpointHighF,DewpointAvgF,DewpointLowF,HumidityHigh,HumidityAvg,HumidityLow,PressureMaxIn,PressureMinIn,WindSpeedMaxMPH,WindSpeedAvgMPH,GustSpeedMaxMPH,PrecipitationSumIn
2014-1-1,67.2,51.1,37.9,53.9,43.2,32.0,94,75,59,30.26,30.00,12,2,15,0.00
2014-1-2,52.1,42.2,33.8,50.2,28.6,24.4,94,60,37,30.48,30.11,21,6,25,0.00
2014-1-3,55.3,41.1,27.0,39.4,25.7,22.0,86,58,30,30.47,30.13,13,2,16,0.00
2014-1-4,69.5,55.7,41.4,56.4,49.1,39.1,93,80,58,30.13,29.81,18,3,24,0.00
2014-1-5,58.2,44.7,32.9,55.9,32.4,19.4,94,63,42,30.46,29.78,26,8,28,0.00
2014-1-6,34.1,28.3,21.2,19.5,11.9,7.2,64,51,37,30.78,30.47,26,4,26,0.00
2014-1-7,46.3,34.9,21.2,31.7,15.3,10.1,76,47,25,30.66,30.36,11,2,15,0.00
2014-1-8,52.3,44.0,39.4,51.5,41.8,30.7,100,92,64,30.35,30.11,12,0,16,0.17
2014-1-9,68.1,58.5,52.1,61.0,56.4,51.3,100,93,76,30.17,29.99,14,1,16,0.01
2014-1-10,69.7,64.0,55.7,65.1,61.3,53.8,97,91,80,29.99,29.74,17,3,19,0.14
2014-1-11,72.1,58.3,46.8,56.4,40.8,27.4,96,59,20,30.15,29.84,13,1,15,0.01
2014-1-12,64.9,56.7,44.1,59.5,48.2,35.8,92,74,58,30.10,29.90,17,2,17,0.02
2014-1-13,68.5,58.6,42.0,61.5,38.7,23.2,96,54,21,30.13,29.85,19,5,26,0.00
2014-1-14,73.9,54.0,37.2,35.3,30.5,27.7,74,45,19,30.33,30.00,26,4,26,0.00
2014-1-15,62.6,49.7,37.2,32.2,26.8,20.5,68,42,26,30.45,30.16,18,2,18,0.00
2014-1-16,69.8,54.4,39.5,36.7,32.0,26.8,68,44,28,30.20,30.05,14,1,19,0.00
2014-1-17,60.9,51.7,40.6,35.5,26.2,20.9,57,38,23,30.36,30.20,14,2,15,0.00
2014-1-18,68.3,51.5,36.6,45.7,35.6,24.7,77,56,39,30.25,30.09,15,1,15,0.00
2014-1-19,69.3,55.3,43.3,43.7,34.3,26.9,82,48,21,30.34,30.10,7,0,9,0.00
2014-1-20,79.7,61.9,44.0,55.2,41.4,30.5,84,51,27,30.14,29.84,23,3,26,0.00
2014-1-21,60.5,51.6,39.5,33.0,28.3,25.8,66,42,28,30.41,30.15,21,5,23,0.00
2014-1-22,68.6,51.6,36.1,42.2,31.4,27.1,71,49,25,30.21,30.00,15,2,15,0.00
2014-1-23,52.9,40.2,26.2,44.5,33.4,22.5,88,77,56,30.70,30.04,26,8,31,0.01
2014-1-24,38.7,30.7,24.7,24.8,19.6,12.8,88,64,48,30.74,30.38,15,3,21,0.07
2014-1-25,67.2,45.7,26.2,39.2,30.9,23.4,91,61,28,30.37,30.02,9,0,12,0.00
2014-1-26,74.0,58.6,42.6,48.8,42.3,35.7,79,57,35,30.01,29.67,18,2,18,0.00
2014-1-27,53.9,45.3,32.8,46.2,27.0,11.2,85,51,31,30.26,29.79,24,7,31,0.00
2014-1-28,37.9,31.4,25.8,23.0,16.9,11.8,78,56,39,30.50,30.24,20,6,20,0.00
2014-1-29,47.4,35.2,25.1,20.7,17.4,14.9,71,50,29,30.51,30.27,13,1,13,0.02
2014-1-30,63.3,47.2,30.4,52.5,38.7,20.9,90,72,59,30.26,29.89,17,4,27,0.06
2014-1-31,77.5,64.1,54.2,61.4,56.4,51.9,93,78,51,29.95,29.78,21,6,23,0.00